sensor_id;sensor_type;location;lat;lon;timestamp;temperature;humidity
17483;DHT22;8858;52.308;20.994;2022-08-23T00:01:37;21.70;99.90
17483;DHT22;8858;52.308;20.994;2022-08-23T00:05:23;21.70;99.90
17483;DHT22;8858;52.308;20.994;2022-08-23T00:08:05;21.60;99.90
17483;DHT22;8858;52.308;20.994;2022-08-23T00:10:42;21.60;99.90
17483;DHT22;8858;52.308;20.994;2022-08-23T00:13:14;21.60;99.90
17483;DHT22;8858;52.308;20.994;2022-08-23T00:15:43;21.60;99.90
17483;DHT22;8858;52.308;20.994;2022-08-23T00:18:13;21.60;99.90
17483;DHT22;8858;52.308;20.994;2022-08-23T00:20:43;21.60;99.90
17483;DHT22;8858;52.308;20.994;2022-08-23T00:23:11;21.50;99.90
17483;DHT22;8858;52.308;20.994;2022-08-23T00:25:42;21.60;99.90
17483;DHT22;8858;52.308;20.994;2022-08-23T00:28:11;21.50;99.90
17483;DHT22;8858;52.308;20.994;2022-08-23T00:31:07;21.50;99.90
17483;DHT22;8858;52.308;20.994;2022-08-23T00:34:25;21.50;99.90
17483;DHT22;8858;52.308;20.994;2022-08-23T00:37:43;21.40;99.90
17483;DHT22;8858;52.308;20.994;2022-08-23T00:40:58;21.40;99.90
17483;DHT22;8858;52.308;20.994;2022-08-23T00:43:53;21.30;99.90
17483;DHT22;8858;52.308;20.994;2022-08-23T00:47:14;21.30;99.90
17483;DHT22;8858;52.308;20.994;2022-08-23T00:50:17;21.30;99.90
17483;DHT22;8858;52.308;20.994;2022-08-23T00:53:39;21.30;99.90
17483;DHT22;8858;52.308;20.994;2022-08-23T00:56:47;21.40;99.90
17483;DHT22;8858;52.308;20.994;2022-08-23T00:59:43;21.30;99.90
17483;DHT22;8858;52.308;20.994;2022-08-23T01:02:36;21.30;99.90
17483;DHT22;8858;52.308;20.994;2022-08-23T01:05:57;21.30;99.90
17483;DHT22;8858;52.308;20.994;2022-08-23T01:08:59;21.30;99.90
17483;DHT22;8858;52.308;20.994;2022-08-23T01:12:45;21.30;99.90
17483;DHT22;8858;52.308;20.994;2022-08-23T01:15:26;21.30;99.90
17483;DHT22;8858;52.308;20.994;2022-08-23T01:18:02;21.30;99.90
17483;DHT22;8858;52.308;20.994;2022-08-23T01:21:08;21.30;99.90
17483;DHT22;8858;52.308;20.994;2022-08-23T01:24:39;21.40;99.90
17483;DHT22;8858;52.308;20.994;2022-08-23T01:27:51;21.40;99.90
17483;DHT22;8858;52.308;20.994;2022-08-23T01:30:23;21.40;99.90
17483;DHT22;8858;52.308;20.994;2022-08-23T01:32:57;21.40;99.90
17483;DHT22;8858;52.308;20.994;2022-08-23T01:35:33;21.50;99.90
17483;DHT22;8858;52.308;20.994;2022-08-23T01:38:13;21.50;99.90
17483;DHT22;8858;52.308;20.994;2022-08-23T01:40:45;21.60;99.90
17483;DHT22;8858;52.308;20.994;2022-08-23T01:43:15;21.50;99.90
17483;DHT22;8858;52.308;20.994;2022-08-23T01:45:52;21.60;99.90
17483;DHT22;8858;52.308;20.994;2022-08-23T01:48:23;21.60;99.90
17483;DHT22;8858;52.308;20.994;2022-08-23T01:50:52;21.60;99.90
17483;DHT22;8858;52.308;20.994;2022-08-23T01:53:22;21.60;99.90
17483;DHT22;8858;52.308;20.994;2022-08-23T01:55:52;21.60;99.90
17483;DHT22;8858;52.308;20.994;2022-08-23T01:58:21;21.60;99.90
17483;DHT22;8858;52.308;20.994;2022-08-23T02:00:51;21.60;99.90
17483;DHT22;8858;52.308;20.994;2022-08-23T02:03:21;21.60;99.90
17483;DHT22;8858;52.308;20.994;2022-08-23T02:05:50;21.50;99.90
17483;DHT22;8858;52.308;20.994;2022-08-23T02:09:02;21.50;99.90
17483;DHT22;8858;52.308;20.994;2022-08-23T02:11:46;21.50;99.90
17483;DHT22;8858;52.308;20.994;2022-08-23T02:14:18;21.50;99.90
17483;DHT22;8858;52.308;20.994;2022-08-23T02:16:52;21.40;99.90
17483;DHT22;8858;52.308;20.994;2022-08-23T02:19:33;21.40;99.90
17483;DHT22;8858;52.308;20.994;2022-08-23T02:22:05;21.40;99.90
17483;DHT22;8858;52.308;20.994;2022-08-23T02:24:38;21.40;99.90
17483;DHT22;8858;52.308;20.994;2022-08-23T02:27:08;21.40;99.90
17483;DHT22;8858;52.308;20.994;2022-08-23T02:29:42;21.40;99.90
17483;DHT22;8858;52.308;20.994;2022-08-23T02:32:15;21.40;99.90
17483;DHT22;8858;52.308;20.994;2022-08-23T02:34:46;21.40;99.90
17483;DHT22;8858;52.308;20.994;2022-08-23T02:37:34;21.30;99.90
17483;DHT22;8858;52.308;20.994;2022-08-23T02:40:05;21.20;99.90
17483;DHT22;8858;52.308;20.994;2022-08-23T02:42:36;21.20;99.90
17483;DHT22;8858;52.308;20.994;2022-08-23T02:45:05;21.20;99.90
17483;DHT22;8858;52.308;20.994;2022-08-23T02:47:42;21.20;99.90
17483;DHT22;8858;52.308;20.994;2022-08-23T02:50:31;21.20;99.90
17483;DHT22;8858;52.308;20.994;2022-08-23T02:53:03;21.20;99.90
17483;DHT22;8858;52.308;20.994;2022-08-23T02:55:32;21.20;99.90
17483;DHT22;8858;52.308;20.994;2022-08-23T02:58:03;21.20;99.90
17483;DHT22;8858;52.308;20.994;2022-08-23T03:00:33;21.20;99.90
17483;DHT22;8858;52.308;20.994;2022-08-23T03:03:02;21.20;99.90
17483;DHT22;8858;52.308;20.994;2022-08-23T03:05:31;21.20;99.90
17483;DHT22;8858;52.308;20.994;2022-08-23T03:08:01;21.20;99.90
17483;DHT22;8858;52.308;20.994;2022-08-23T03:10:41;21.10;99.90
17483;DHT22;8858;52.308;20.994;2022-08-23T03:13:11;21.10;99.90
17483;DHT22;8858;52.308;20.994;2022-08-23T03:15:41;21.10;99.90
17483;DHT22;8858;52.308;20.994;2022-08-23T03:18:10;21.10;99.90
17483;DHT22;8858;52.308;20.994;2022-08-23T03:20:39;21.10;99.90
17483;DHT22;8858;52.308;20.994;2022-08-23T03:23:10;21.10;99.90
17483;DHT22;8858;52.308;20.994;2022-08-23T03:25:38;21.10;99.90
17483;DHT22;8858;52.308;20.994;2022-08-23T03:28:19;21.20;99.90
17483;DHT22;8858;52.308;20.994;2022-08-23T03:30:48;21.10;99.90
17483;DHT22;8858;52.308;20.994;2022-08-23T03:33:17;21.10;99.90
17483;DHT22;8858;52.308;20.994;2022-08-23T03:35:46;21.10;99.90
17483;DHT22;8858;52.308;20.994;2022-08-23T03:38:16;21.20;99.90
17483;DHT22;8858;52.308;20.994;2022-08-23T03:40:46;21.20;99.90
17483;DHT22;8858;52.308;20.994;2022-08-23T03:43:20;21.20;99.90
17483;DHT22;8858;52.308;20.994;2022-08-23T03:45:51;21.10;99.90
17483;DHT22;8858;52.308;20.994;2022-08-23T03:48:21;21.20;99.90
17483;DHT22;8858;52.308;20.994;2022-08-23T03:50:51;21.20;99.90
17483;DHT22;8858;52.308;20.994;2022-08-23T03:53:21;21.10;99.90
17483;DHT22;8858;52.308;20.994;2022-08-23T03:55:54;21.10;99.90
17483;DHT22;8858;52.308;20.994;2022-08-23T03:58:24;21.10;99.90
17483;DHT22;8858;52.308;20.994;2022-08-23T04:00:55;21.10;99.90
17483;DHT22;8858;52.308;20.994;2022-08-23T04:03:24;21.10;99.90
17483;DHT22;8858;52.308;20.994;2022-08-23T04:06:03;21.00;99.90
17483;DHT22;8858;52.308;20.994;2022-08-23T04:08:35;21.00;99.90
17483;DHT22;8858;52.308;20.994;2022-08-23T04:11:04;21.00;99.90
17483;DHT22;8858;52.308;20.994;2022-08-23T04:13:38;21.00;99.90
17483;DHT22;8858;52.308;20.994;2022-08-23T04:16:10;21.00;99.90
17483;DHT22;8858;52.308;20.994;2022-08-23T04:18:39;21.00;99.90
17483;DHT22;8858;52.308;20.994;2022-08-23T04:21:09;21.00;99.90
17483;DHT22;8858;52.308;20.994;2022-08-23T04:23:40;21.00;99.90
17483;DHT22;8858;52.308;20.994;2022-08-23T04:26:09;21.00;99.90
17483;DHT22;8858;52.308;20.994;2022-08-23T04:28:42;21.00;99.90
17483;DHT22;8858;52.308;20.994;2022-08-23T04:31:12;21.00;99.90
17483;DHT22;8858;52.308;20.994;2022-08-23T04:33:47;21.00;99.90
17483;DHT22;8858;52.308;20.994;2022-08-23T04:36:21;21.00;99.90
17483;DHT22;8858;52.308;20.994;2022-08-23T04:38:54;21.10;99.90
17483;DHT22;8858;52.308;20.994;2022-08-23T04:41:28;21.10;99.90
17483;DHT22;8858;52.308;20.994;2022-08-23T04:44:15;21.10;99.90
17483;DHT22;8858;52.308;20.994;2022-08-23T04:46:45;21.00;99.90
17483;DHT22;8858;52.308;20.994;2022-08-23T04:49:16;21.00;99.90
17483;DHT22;8858;52.308;20.994;2022-08-23T04:51:52;21.00;99.90
17483;DHT22;8858;52.308;20.994;2022-08-23T04:54:22;21.00;99.90
17483;DHT22;8858;52.308;20.994;2022-08-23T04:57:14;21.00;99.90
17483;DHT22;8858;52.308;20.994;2022-08-23T04:59:46;21.00;99.90
17483;DHT22;8858;52.308;20.994;2022-08-23T05:02:15;21.00;99.90
17483;DHT22;8858;52.308;20.994;2022-08-23T05:04:43;21.00;99.90
17483;DHT22;8858;52.308;20.994;2022-08-23T05:07:13;21.00;99.90
17483;DHT22;8858;52.308;20.994;2022-08-23T05:09:43;21.00;99.90
17483;DHT22;8858;52.308;20.994;2022-08-23T05:12:12;21.00;99.90
17483;DHT22;8858;52.308;20.994;2022-08-23T05:14:50;21.00;99.90
17483;DHT22;8858;52.308;20.994;2022-08-23T05:17:18;21.10;99.90
17483;DHT22;8858;52.308;20.994;2022-08-23T05:19:49;21.10;99.90
17483;DHT22;8858;52.308;20.994;2022-08-23T05:22:19;21.10;99.90
17483;DHT22;8858;52.308;20.994;2022-08-23T05:25:14;21.10;99.90
17483;DHT22;8858;52.308;20.994;2022-08-23T05:27:42;21.00;99.90
17483;DHT22;8858;52.308;20.994;2022-08-23T05:30:12;21.10;99.90
17483;DHT22;8858;52.308;20.994;2022-08-23T05:32:42;21.10;99.90
17483;DHT22;8858;52.308;20.994;2022-08-23T05:35:13;21.10;99.90
17483;DHT22;8858;52.308;20.994;2022-08-23T05:37:43;21.10;99.90
17483;DHT22;8858;52.308;20.994;2022-08-23T05:40:15;21.10;99.90
17483;DHT22;8858;52.308;20.994;2022-08-23T05:42:57;21.10;99.90
17483;DHT22;8858;52.308;20.994;2022-08-23T05:45:27;21.10;99.90
17483;DHT22;8858;52.308;20.994;2022-08-23T05:47:55;21.20;99.90
17483;DHT22;8858;52.308;20.994;2022-08-23T05:50:35;21.20;99.90
17483;DHT22;8858;52.308;20.994;2022-08-23T05:53:05;21.20;99.90
17483;DHT22;8858;52.308;20.994;2022-08-23T05:55:36;21.20;99.90
17483;DHT22;8858;52.308;20.994;2022-08-23T05:58:15;21.20;99.90
17483;DHT22;8858;52.308;20.994;2022-08-23T06:00:46;21.20;99.90
17483;DHT22;8858;52.308;20.994;2022-08-23T06:03:15;21.30;99.90
17483;DHT22;8858;52.308;20.994;2022-08-23T06:05:45;21.30;99.90
17483;DHT22;8858;52.308;20.994;2022-08-23T06:08:21;21.30;99.90
17483;DHT22;8858;52.308;20.994;2022-08-23T06:10:58;21.30;99.90
17483;DHT22;8858;52.308;20.994;2022-08-23T06:13:38;21.40;99.90
17483;DHT22;8858;52.308;20.994;2022-08-23T06:16:11;21.40;99.90
17483;DHT22;8858;52.308;20.994;2022-08-23T06:18:42;21.50;99.90
17483;DHT22;8858;52.308;20.994;2022-08-23T06:21:37;21.50;99.90
17483;DHT22;8858;52.308;20.994;2022-08-23T06:24:05;21.50;99.90
17483;DHT22;8858;52.308;20.994;2022-08-23T06:27:04;21.60;99.90
17483;DHT22;8858;52.308;20.994;2022-08-23T06:29:34;21.60;99.90
17483;DHT22;8858;52.308;20.994;2022-08-23T06:32:35;21.70;99.90
17483;DHT22;8858;52.308;20.994;2022-08-23T06:35:22;21.80;99.90
17483;DHT22;8858;52.308;20.994;2022-08-23T06:38:24;21.80;99.90
17483;DHT22;8858;52.308;20.994;2022-08-23T06:41:15;21.90;99.90
17483;DHT22;8858;52.308;20.994;2022-08-23T06:43:53;21.90;99.90
17483;DHT22;8858;52.308;20.994;2022-08-23T06:46:32;22.00;99.90
17483;DHT22;8858;52.308;20.994;2022-08-23T06:49:03;22.00;99.90
17483;DHT22;8858;52.308;20.994;2022-08-23T06:51:35;22.10;99.90
17483;DHT22;8858;52.308;20.994;2022-08-23T06:54:16;22.10;99.90
17483;DHT22;8858;52.308;20.994;2022-08-23T06:57:11;22.20;99.90
17483;DHT22;8858;52.308;20.994;2022-08-23T07:00:05;22.20;99.90
17483;DHT22;8858;52.308;20.994;2022-08-23T07:03:00;22.30;99.90
17483;DHT22;8858;52.308;20.994;2022-08-23T07:05:48;22.30;99.90
17483;DHT22;8858;52.308;20.994;2022-08-23T07:08:20;22.40;99.90
17483;DHT22;8858;52.308;20.994;2022-08-23T07:10:48;22.40;99.90
17483;DHT22;8858;52.308;20.994;2022-08-23T07:13:17;22.40;99.90
17483;DHT22;8858;52.308;20.994;2022-08-23T07:15:49;22.50;99.90
17483;DHT22;8858;52.308;20.994;2022-08-23T07:18:20;22.50;99.90
17483;DHT22;8858;52.308;20.994;2022-08-23T07:20:56;22.60;99.90
17483;DHT22;8858;52.308;20.994;2022-08-23T07:23:25;22.60;99.90
17483;DHT22;8858;52.308;20.994;2022-08-23T07:25:54;22.70;99.90
17483;DHT22;8858;52.308;20.994;2022-08-23T07:28:28;22.70;99.90
17483;DHT22;8858;52.308;20.994;2022-08-23T07:31:06;22.80;99.90
17483;DHT22;8858;52.308;20.994;2022-08-23T07:33:41;22.80;99.90
17483;DHT22;8858;52.308;20.994;2022-08-23T07:36:18;22.90;99.90
17483;DHT22;8858;52.308;20.994;2022-08-23T07:38:48;23.00;99.90
17483;DHT22;8858;52.308;20.994;2022-08-23T07:41:19;23.00;99.90
17483;DHT22;8858;52.308;20.994;2022-08-23T07:43:49;23.00;99.90
17483;DHT22;8858;52.308;20.994;2022-08-23T07:46:18;23.00;99.90
17483;DHT22;8858;52.308;20.994;2022-08-23T07:48:49;23.00;99.90
17483;DHT22;8858;52.308;20.994;2022-08-23T07:51:32;23.10;99.90
17483;DHT22;8858;52.308;20.994;2022-08-23T07:54:02;23.10;99.90
17483;DHT22;8858;52.308;20.994;2022-08-23T07:56:34;23.10;99.90
17483;DHT22;8858;52.308;20.994;2022-08-23T07:59:24;23.20;99.90
17483;DHT22;8858;52.308;20.994;2022-08-23T08:02:22;23.20;99.90
17483;DHT22;8858;52.308;20.994;2022-08-23T08:04:57;23.20;99.90
17483;DHT22;8858;52.308;20.994;2022-08-23T08:07:29;23.30;99.90
17483;DHT22;8858;52.308;20.994;2022-08-23T08:10:06;23.40;99.90
17483;DHT22;8858;52.308;20.994;2022-08-23T08:12:35;23.40;99.90
17483;DHT22;8858;52.308;20.994;2022-08-23T08:15:13;23.50;99.90
17483;DHT22;8858;52.308;20.994;2022-08-23T08:17:45;23.50;99.90
17483;DHT22;8858;52.308;20.994;2022-08-23T08:20:21;23.60;99.90
17483;DHT22;8858;52.308;20.994;2022-08-23T08:23:07;23.70;99.90
17483;DHT22;8858;52.308;20.994;2022-08-23T08:26:07;23.80;99.90
17483;DHT22;8858;52.308;20.994;2022-08-23T08:28:40;23.90;99.90
17483;DHT22;8858;52.308;20.994;2022-08-23T08:31:09;24.00;99.90
17483;DHT22;8858;52.308;20.994;2022-08-23T08:33:39;24.00;99.90
17483;DHT22;8858;52.308;20.994;2022-08-23T08:36:27;24.20;99.90
17483;DHT22;8858;52.308;20.994;2022-08-23T08:38:58;24.30;99.90
17483;DHT22;8858;52.308;20.994;2022-08-23T08:41:41;24.40;99.90
17483;DHT22;8858;52.308;20.994;2022-08-23T08:44:22;24.40;99.90
17483;DHT22;8858;52.308;20.994;2022-08-23T08:46:54;24.50;99.90
17483;DHT22;8858;52.308;20.994;2022-08-23T08:49:31;24.50;99.90
17483;DHT22;8858;52.308;20.994;2022-08-23T08:52:08;24.50;99.90
17483;DHT22;8858;52.308;20.994;2022-08-23T08:54:41;24.60;99.90
17483;DHT22;8858;52.308;20.994;2022-08-23T08:57:15;24.60;99.90
17483;DHT22;8858;52.308;20.994;2022-08-23T08:59:57;24.60;99.90
17483;DHT22;8858;52.308;20.994;2022-08-23T09:02:31;24.70;99.90
17483;DHT22;8858;52.308;20.994;2022-08-23T09:05:10;24.80;99.90
17483;DHT22;8858;52.308;20.994;2022-08-23T09:07:49;24.90;99.90
17483;DHT22;8858;52.308;20.994;2022-08-23T09:13:26;25.00;99.90
17483;DHT22;8858;52.308;20.994;2022-08-23T09:16:03;25.10;99.90
17483;DHT22;8858;52.308;20.994;2022-08-23T09:18:36;25.20;99.90
17483;DHT22;8858;52.308;20.994;2022-08-23T09:21:07;25.30;99.90
17483;DHT22;8858;52.308;20.994;2022-08-23T09:23:40;25.40;99.90
17483;DHT22;8858;52.308;20.994;2022-08-23T09:26:20;25.50;99.90
17483;DHT22;8858;52.308;20.994;2022-08-23T09:28:51;25.60;99.90
17483;DHT22;8858;52.308;20.994;2022-08-23T09:31:37;25.70;99.90
17483;DHT22;8858;52.308;20.994;2022-08-23T09:34:08;25.80;99.90
17483;DHT22;8858;52.308;20.994;2022-08-23T09:36:48;25.80;99.90
17483;DHT22;8858;52.308;20.994;2022-08-23T09:39:29;25.90;99.90
17483;DHT22;8858;52.308;20.994;2022-08-23T09:42:08;25.90;99.90
17483;DHT22;8858;52.308;20.994;2022-08-23T09:44:38;26.10;99.90
17483;DHT22;8858;52.308;20.994;2022-08-23T09:47:12;26.10;99.90
17483;DHT22;8858;52.308;20.994;2022-08-23T09:49:50;26.20;99.90
17483;DHT22;8858;52.308;20.994;2022-08-23T09:52:24;26.30;99.90
17483;DHT22;8858;52.308;20.994;2022-08-23T09:55:01;26.30;99.90
17483;DHT22;8858;52.308;20.994;2022-08-23T09:57:37;26.30;99.90
17483;DHT22;8858;52.308;20.994;2022-08-23T10:00:23;26.40;99.90
17483;DHT22;8858;52.308;20.994;2022-08-23T10:03:23;26.50;99.90
17483;DHT22;8858;52.308;20.994;2022-08-23T10:05:59;26.60;99.90
17483;DHT22;8858;52.308;20.994;2022-08-23T10:08:34;26.70;99.90
17483;DHT22;8858;52.308;20.994;2022-08-23T10:11:16;26.90;99.90
17483;DHT22;8858;52.308;20.994;2022-08-23T10:13:47;27.00;99.90
17483;DHT22;8858;52.308;20.994;2022-08-23T10:16:49;27.10;99.90
17483;DHT22;8858;52.308;20.994;2022-08-23T10:19:30;27.10;99.90
17483;DHT22;8858;52.308;20.994;2022-08-23T10:22:09;27.20;99.90
17483;DHT22;8858;52.308;20.994;2022-08-23T10:24:57;27.20;99.90
17483;DHT22;8858;52.308;20.994;2022-08-23T10:27:38;27.30;99.90
17483;DHT22;8858;52.308;20.994;2022-08-23T10:30:38;27.40;99.90
17483;DHT22;8858;52.308;20.994;2022-08-23T10:33:16;27.50;99.90
17483;DHT22;8858;52.308;20.994;2022-08-23T10:35:56;27.60;99.90
17483;DHT22;8858;52.308;20.994;2022-08-23T10:38:40;27.70;99.90
17483;DHT22;8858;52.308;20.994;2022-08-23T10:41:32;27.80;99.90
17483;DHT22;8858;52.308;20.994;2022-08-23T10:44:20;27.80;99.90
17483;DHT22;8858;52.308;20.994;2022-08-23T10:47:01;27.90;99.90
17483;DHT22;8858;52.308;20.994;2022-08-23T10:49:33;27.90;99.90
17483;DHT22;8858;52.308;20.994;2022-08-23T10:52:14;28.00;99.90
17483;DHT22;8858;52.308;20.994;2022-08-23T10:54:47;28.00;99.90
17483;DHT22;8858;52.308;20.994;2022-08-23T10:57:33;28.10;99.90
17483;DHT22;8858;52.308;20.994;2022-08-23T11:00:06;28.10;99.90
17483;DHT22;8858;52.308;20.994;2022-08-23T11:02:42;28.10;99.90
17483;DHT22;8858;52.308;20.994;2022-08-23T11:05:26;28.20;99.90
17483;DHT22;8858;52.308;20.994;2022-08-23T11:08:02;28.30;99.90
17483;DHT22;8858;52.308;20.994;2022-08-23T11:10:44;28.30;99.90
17483;DHT22;8858;52.308;20.994;2022-08-23T11:13:27;28.40;99.90
17483;DHT22;8858;52.308;20.994;2022-08-23T11:16:00;28.50;99.90
17483;DHT22;8858;52.308;20.994;2022-08-23T11:18:41;28.60;99.90
17483;DHT22;8858;52.308;20.994;2022-08-23T11:21:43;28.70;99.90
17483;DHT22;8858;52.308;20.994;2022-08-23T11:24:48;28.70;99.90
17483;DHT22;8858;52.308;20.994;2022-08-23T11:27:29;28.80;99.90
17483;DHT22;8858;52.308;20.994;2022-08-23T11:33:12;28.90;99.90
17483;DHT22;8858;52.308;20.994;2022-08-23T11:35:47;28.90;99.90
17483;DHT22;8858;52.308;20.994;2022-08-23T11:41:27;28.90;99.90
17483;DHT22;8858;52.308;20.994;2022-08-23T11:44:21;29.10;99.90
17483;DHT22;8858;52.308;20.994;2022-08-23T11:46:58;29.10;99.90
17483;DHT22;8858;52.308;20.994;2022-08-23T11:50:05;29.20;99.90
17483;DHT22;8858;52.308;20.994;2022-08-23T11:53:03;29.30;99.90
17483;DHT22;8858;52.308;20.994;2022-08-23T11:58:55;29.50;99.90
17483;DHT22;8858;52.308;20.994;2022-08-23T12:01:30;29.50;99.90
17483;DHT22;8858;52.308;20.994;2022-08-23T12:04:02;29.50;99.90
17483;DHT22;8858;52.308;20.994;2022-08-23T12:06:41;29.60;99.90
17483;DHT22;8858;52.308;20.994;2022-08-23T12:09:50;29.60;99.90
17483;DHT22;8858;52.308;20.994;2022-08-23T12:12:33;29.60;99.90
17483;DHT22;8858;52.308;20.994;2022-08-23T12:15:10;29.80;99.90
17483;DHT22;8858;52.308;20.994;2022-08-23T12:18:09;29.90;99.90
17483;DHT22;8858;52.308;20.994;2022-08-23T12:20:39;29.90;99.90
17483;DHT22;8858;52.308;20.994;2022-08-23T12:23:19;30.00;99.90
17483;DHT22;8858;52.308;20.994;2022-08-23T12:26:04;30.00;99.90
17483;DHT22;8858;52.308;20.994;2022-08-23T12:28:40;30.00;99.90
17483;DHT22;8858;52.308;20.994;2022-08-23T12:31:17;30.00;99.90
17483;DHT22;8858;52.308;20.994;2022-08-23T12:33:58;30.00;99.90
17483;DHT22;8858;52.308;20.994;2022-08-23T12:36:41;30.00;99.90
17483;DHT22;8858;52.308;20.994;2022-08-23T12:39:23;30.10;99.90
17483;DHT22;8858;52.308;20.994;2022-08-23T12:41:59;30.10;99.90
17483;DHT22;8858;52.308;20.994;2022-08-23T12:44:32;30.20;99.90
17483;DHT22;8858;52.308;20.994;2022-08-23T12:47:12;30.40;99.90
17483;DHT22;8858;52.308;20.994;2022-08-23T12:49:54;30.50;99.90
17483;DHT22;8858;52.308;20.994;2022-08-23T12:52:29;30.70;99.90
17483;DHT22;8858;52.308;20.994;2022-08-23T12:54:59;30.90;99.90
17483;DHT22;8858;52.308;20.994;2022-08-23T12:57:35;31.00;99.90
17483;DHT22;8858;52.308;20.994;2022-08-23T13:00:19;31.10;99.90
17483;DHT22;8858;52.308;20.994;2022-08-23T13:02:56;31.30;99.90
17483;DHT22;8858;52.308;20.994;2022-08-23T13:05:32;31.40;99.90
17483;DHT22;8858;52.308;20.994;2022-08-23T13:08:05;31.40;99.90
17483;DHT22;8858;52.308;20.994;2022-08-23T13:10:36;31.40;99.90
17483;DHT22;8858;52.308;20.994;2022-08-23T13:13:09;31.40;99.90
17483;DHT22;8858;52.308;20.994;2022-08-23T13:15:47;31.60;99.90
17483;DHT22;8858;52.308;20.994;2022-08-23T13:18:30;31.70;99.90
17483;DHT22;8858;52.308;20.994;2022-08-23T13:21:27;31.90;99.90
17483;DHT22;8858;52.308;20.994;2022-08-23T13:24:25;31.90;99.90
17483;DHT22;8858;52.308;20.994;2022-08-23T13:27:19;32.00;99.90
17483;DHT22;8858;52.308;20.994;2022-08-23T13:29:56;32.20;99.90
17483;DHT22;8858;52.308;20.994;2022-08-23T13:32:33;32.60;99.90
17483;DHT22;8858;52.308;20.994;2022-08-23T13:35:21;33.10;99.90
17483;DHT22;8858;52.308;20.994;2022-08-23T13:37:55;33.70;99.90
17483;DHT22;8858;52.308;20.994;2022-08-23T13:40:25;34.30;99.90
17483;DHT22;8858;52.308;20.994;2022-08-23T13:42:57;34.70;99.90
17483;DHT22;8858;52.308;20.994;2022-08-23T13:45:31;35.30;99.90
17483;DHT22;8858;52.308;20.994;2022-08-23T13:48:06;36.00;99.90
17483;DHT22;8858;52.308;20.994;2022-08-23T13:50:36;36.70;98.60
17483;DHT22;8858;52.308;20.994;2022-08-23T13:53:06;37.50;97.90
17483;DHT22;8858;52.308;20.994;2022-08-23T13:55:45;38.10;96.70
17483;DHT22;8858;52.308;20.994;2022-08-23T13:58:25;38.20;95.60
17483;DHT22;8858;52.308;20.994;2022-08-23T14:00:55;37.80;96.70
17483;DHT22;8858;52.308;20.994;2022-08-23T14:03:25;37.10;98.80
17483;DHT22;8858;52.308;20.994;2022-08-23T14:05:53;36.40;99.50
17483;DHT22;8858;52.308;20.994;2022-08-23T14:08:22;35.60;99.90
17483;DHT22;8858;52.308;20.994;2022-08-23T14:10:50;34.90;99.90
17483;DHT22;8858;52.308;20.994;2022-08-23T14:13:23;34.20;99.90
17483;DHT22;8858;52.308;20.994;2022-08-23T14:16:00;33.60;99.90
17483;DHT22;8858;52.308;20.994;2022-08-23T14:18:49;33.00;99.90
17483;DHT22;8858;52.308;20.994;2022-08-23T14:21:37;32.50;99.90
17483;DHT22;8858;52.308;20.994;2022-08-23T14:24:06;32.10;99.90
17483;DHT22;8858;52.308;20.994;2022-08-23T14:26:34;31.80;99.90
17483;DHT22;8858;52.308;20.994;2022-08-23T14:29:02;31.50;99.90
17483;DHT22;8858;52.308;20.994;2022-08-23T14:31:32;31.30;99.90
17483;DHT22;8858;52.308;20.994;2022-08-23T14:34:00;31.00;99.90
17483;DHT22;8858;52.308;20.994;2022-08-23T14:36:53;30.80;99.90
17483;DHT22;8858;52.308;20.994;2022-08-23T14:39:43;30.60;99.90
17483;DHT22;8858;52.308;20.994;2022-08-23T14:42:12;30.40;99.90
17483;DHT22;8858;52.308;20.994;2022-08-23T14:44:41;30.30;99.90
17483;DHT22;8858;52.308;20.994;2022-08-23T14:47:11;30.20;99.90
17483;DHT22;8858;52.308;20.994;2022-08-23T14:49:39;30.00;99.90
17483;DHT22;8858;52.308;20.994;2022-08-23T14:52:07;29.90;99.90
17483;DHT22;8858;52.308;20.994;2022-08-23T14:54:35;29.80;99.90
17483;DHT22;8858;52.308;20.994;2022-08-23T14:57:07;29.70;99.90
17483;DHT22;8858;52.308;20.994;2022-08-23T14:59:35;29.60;99.90
17483;DHT22;8858;52.308;20.994;2022-08-23T15:02:06;29.50;99.90
17483;DHT22;8858;52.308;20.994;2022-08-23T15:04:37;29.40;99.90
17483;DHT22;8858;52.308;20.994;2022-08-23T15:07:07;29.30;99.90
17483;DHT22;8858;52.308;20.994;2022-08-23T15:09:48;29.20;99.90
17483;DHT22;8858;52.308;20.994;2022-08-23T15:12:18;29.10;99.90
17483;DHT22;8858;52.308;20.994;2022-08-23T15:15:10;29.10;99.90
17483;DHT22;8858;52.308;20.994;2022-08-23T15:17:44;28.90;99.90
17483;DHT22;8858;52.308;20.994;2022-08-23T15:20:15;28.90;99.90
17483;DHT22;8858;52.308;20.994;2022-08-23T15:22:46;28.80;99.90
17483;DHT22;8858;52.308;20.994;2022-08-23T15:25:22;28.80;99.90
17483;DHT22;8858;52.308;20.994;2022-08-23T15:27:55;28.80;99.90
17483;DHT22;8858;52.308;20.994;2022-08-23T15:30:24;28.70;99.90
17483;DHT22;8858;52.308;20.994;2022-08-23T15:32:56;28.70;99.90
17483;DHT22;8858;52.308;20.994;2022-08-23T15:35:25;28.60;99.90
17483;DHT22;8858;52.308;20.994;2022-08-23T15:37:55;28.60;99.90
17483;DHT22;8858;52.308;20.994;2022-08-23T15:40:24;28.60;99.90
17483;DHT22;8858;52.308;20.994;2022-08-23T15:42:53;28.50;99.90
17483;DHT22;8858;52.308;20.994;2022-08-23T15:45:21;28.50;99.90
17483;DHT22;8858;52.308;20.994;2022-08-23T15:47:51;28.20;99.90
17483;DHT22;8858;52.308;20.994;2022-08-23T15:50:23;27.90;99.90
17483;DHT22;8858;52.308;20.994;2022-08-23T15:52:54;27.70;99.90
17483;DHT22;8858;52.308;20.994;2022-08-23T15:55:23;27.60;99.90
17483;DHT22;8858;52.308;20.994;2022-08-23T15:57:57;27.40;99.90
17483;DHT22;8858;52.308;20.994;2022-08-23T16:00:29;27.00;99.90
17483;DHT22;8858;52.308;20.994;2022-08-23T16:02:57;26.90;99.90
17483;DHT22;8858;52.308;20.994;2022-08-23T16:05:48;26.80;99.90
17483;DHT22;8858;52.308;20.994;2022-08-23T16:08:21;26.60;99.90
17483;DHT22;8858;52.308;20.994;2022-08-23T16:10:52;26.50;99.90
17483;DHT22;8858;52.308;20.994;2022-08-23T16:13:23;26.40;99.90
17483;DHT22;8858;52.308;20.994;2022-08-23T16:15:53;26.30;99.90
17483;DHT22;8858;52.308;20.994;2022-08-23T16:18:21;26.20;99.90
17483;DHT22;8858;52.308;20.994;2022-08-23T16:20:49;26.10;99.90
17483;DHT22;8858;52.308;20.994;2022-08-23T16:23:21;26.00;99.90
17483;DHT22;8858;52.308;20.994;2022-08-23T16:25:52;25.90;99.90
17483;DHT22;8858;52.308;20.994;2022-08-23T16:28:26;25.90;99.90
17483;DHT22;8858;52.308;20.994;2022-08-23T16:31:18;25.90;99.90
17483;DHT22;8858;52.308;20.994;2022-08-23T16:34:06;25.80;99.90
17483;DHT22;8858;52.308;20.994;2022-08-23T16:36:35;25.90;99.90
17483;DHT22;8858;52.308;20.994;2022-08-23T16:39:06;25.90;99.90
17483;DHT22;8858;52.308;20.994;2022-08-23T16:41:34;25.90;99.90
17483;DHT22;8858;52.308;20.994;2022-08-23T16:44:03;25.80;99.90
17483;DHT22;8858;52.308;20.994;2022-08-23T16:46:32;25.90;99.90
17483;DHT22;8858;52.308;20.994;2022-08-23T16:49:01;25.90;99.90